sensor_id;sensor_type;location;lat;lon;timestamp;P1;durP1;ratioP1;P2;durP2;ratioP2
25127;SDS011;13107;51.304;6.866;2024-01-10T00:02:05;10.80;;;5.57;;
25127;SDS011;13107;51.304;6.866;2024-01-10T00:06:07;9.60;;;4.68;;
25127;SDS011;13107;51.304;6.866;2024-01-10T00:10:09;12.30;;;4.95;;
25127;SDS011;13107;51.304;6.866;2024-01-10T00:14:11;13.40;;;4.40;;
25127;SDS011;13107;51.304;6.866;2024-01-10T00:18:13;11.25;;;4.90;;
25127;SDS011;13107;51.304;6.866;2024-01-10T00:22:15;9.20;;;4.68;;
25127;SDS011;13107;51.304;6.866;2024-01-10T00:26:17;10.00;;;4.45;;
25127;SDS011;13107;51.304;6.866;2024-01-10T00:30:18;9.02;;;4.45;;
25127;SDS011;13107;51.304;6.866;2024-01-10T00:34:20;8.52;;;4.07;;
25127;SDS011;13107;51.304;6.866;2024-01-10T00:38:22;11.32;;;5.22;;
25127;SDS011;13107;51.304;6.866;2024-01-10T00:42:24;12.55;;;4.65;;
25127;SDS011;13107;51.304;6.866;2024-01-10T00:46:25;9.85;;;4.57;;
25127;SDS011;13107;51.304;6.866;2024-01-10T00:50:27;8.77;;;4.28;;
25127;SDS011;13107;51.304;6.866;2024-01-10T00:54:29;10.38;;;4.80;;
25127;SDS011;13107;51.304;6.866;2024-01-10T00:58:30;9.63;;;4.55;;
25127;SDS011;13107;51.304;6.866;2024-01-10T01:02:32;12.82;;;5.12;;
25127;SDS011;13107;51.304;6.866;2024-01-10T01:06:34;10.63;;;5.05;;
25127;SDS011;13107;51.304;6.866;2024-01-10T01:10:36;10.98;;;4.53;;
25127;SDS011;13107;51.304;6.866;2024-01-10T01:14:38;12.70;;;4.70;;
25127;SDS011;13107;51.304;6.866;2024-01-10T01:18:40;11.18;;;4.53;;
25127;SDS011;13107;51.304;6.866;2024-01-10T01:22:46;10.30;;;5.32;;
25127;SDS011;13107;51.304;6.866;2024-01-10T01:26:48;12.65;;;4.65;;
25127;SDS011;13107;51.304;6.866;2024-01-10T01:30:49;11.65;;;4.80;;
25127;SDS011;13107;51.304;6.866;2024-01-10T01:34:51;13.27;;;4.80;;
25127;SDS011;13107;51.304;6.866;2024-01-10T01:38:53;12.88;;;5.20;;
25127;SDS011;13107;51.304;6.866;2024-01-10T01:42:55;7.65;;;3.72;;
25127;SDS011;13107;51.304;6.866;2024-01-10T01:46:57;13.52;;;4.55;;
25127;SDS011;13107;51.304;6.866;2024-01-10T01:51:00;11.50;;;4.75;;
25127;SDS011;13107;51.304;6.866;2024-01-10T01:55:06;10.40;;;4.18;;
25127;SDS011;13107;51.304;6.866;2024-01-10T01:59:09;10.18;;;5.00;;
25127;SDS011;13107;51.304;6.866;2024-01-10T02:03:11;11.20;;;5.10;;
25127;SDS011;13107;51.304;6.866;2024-01-10T02:07:13;10.80;;;4.65;;
25127;SDS011;13107;51.304;6.866;2024-01-10T02:11:15;9.38;;;3.70;;
25127;SDS011;13107;51.304;6.866;2024-01-10T02:15:17;9.63;;;4.43;;
25127;SDS011;13107;51.304;6.866;2024-01-10T02:19:22;10.25;;;4.68;;
25127;SDS011;13107;51.304;6.866;2024-01-10T02:23:24;8.30;;;4.00;;
25127;SDS011;13107;51.304;6.866;2024-01-10T02:27:27;9.65;;;4.30;;
25127;SDS011;13107;51.304;6.866;2024-01-10T02:31:28;9.00;;;4.03;;
25127;SDS011;13107;51.304;6.866;2024-01-10T02:35:30;12.63;;;5.05;;
25127;SDS011;13107;51.304;6.866;2024-01-10T02:39:34;10.15;;;4.22;;
25127;SDS011;13107;51.304;6.866;2024-01-10T02:43:36;10.93;;;5.05;;
25127;SDS011;13107;51.304;6.866;2024-01-10T02:47:37;10.73;;;4.85;;
25127;SDS011;13107;51.304;6.866;2024-01-10T02:51:40;7.03;;;3.80;;
25127;SDS011;13107;51.304;6.866;2024-01-10T02:55:42;10.65;;;5.03;;
25127;SDS011;13107;51.304;6.866;2024-01-10T02:59:44;8.45;;;4.12;;
25127;SDS011;13107;51.304;6.866;2024-01-10T03:03:46;10.88;;;4.28;;
25127;SDS011;13107;51.304;6.866;2024-01-10T03:07:48;11.38;;;4.57;;
25127;SDS011;13107;51.304;6.866;2024-01-10T03:11:50;9.55;;;4.28;;
25127;SDS011;13107;51.304;6.866;2024-01-10T03:15:52;9.88;;;4.53;;
25127;SDS011;13107;51.304;6.866;2024-01-10T03:19:53;11.18;;;4.80;;
25127;SDS011;13107;51.304;6.866;2024-01-10T03:23:55;8.70;;;4.68;;
25127;SDS011;13107;51.304;6.866;2024-01-10T03:27:58;10.05;;;4.55;;
25127;SDS011;13107;51.304;6.866;2024-01-10T03:32:00;11.68;;;4.68;;
25127;SDS011;13107;51.304;6.866;2024-01-10T03:36:01;8.70;;;4.47;;
25127;SDS011;13107;51.304;6.866;2024-01-10T03:40:04;9.40;;;4.30;;
25127;SDS011;13107;51.304;6.866;2024-01-10T03:44:06;10.38;;;4.72;;
25127;SDS011;13107;51.304;6.866;2024-01-10T03:48:07;9.35;;;3.83;;
25127;SDS011;13107;51.304;6.866;2024-01-10T03:52:09;11.15;;;4.85;;
25127;SDS011;13107;51.304;6.866;2024-01-10T03:56:11;9.93;;;4.82;;
25127;SDS011;13107;51.304;6.866;2024-01-10T04:00:13;12.40;;;5.47;;
25127;SDS011;13107;51.304;6.866;2024-01-10T04:04:15;13.38;;;4.82;;
25127;SDS011;13107;51.304;6.866;2024-01-10T04:08:17;9.95;;;4.32;;
25127;SDS011;13107;51.304;6.866;2024-01-10T04:12:19;11.50;;;4.82;;
25127;SDS011;13107;51.304;6.866;2024-01-10T04:16:21;13.52;;;4.47;;
25127;SDS011;13107;51.304;6.866;2024-01-10T04:20:22;10.80;;;4.22;;
25127;SDS011;13107;51.304;6.866;2024-01-10T04:24:24;12.37;;;4.85;;
25127;SDS011;13107;51.304;6.866;2024-01-10T04:28:26;11.57;;;4.70;;
25127;SDS011;13107;51.304;6.866;2024-01-10T04:32:28;10.05;;;4.75;;
25127;SDS011;13107;51.304;6.866;2024-01-10T04:36:30;10.00;;;4.80;;
25127;SDS011;13107;51.304;6.866;2024-01-10T04:40:32;14.15;;;5.18;;
25127;SDS011;13107;51.304;6.866;2024-01-10T04:44:34;11.93;;;5.07;;
25127;SDS011;13107;51.304;6.866;2024-01-10T04:48:36;13.27;;;5.32;;
25127;SDS011;13107;51.304;6.866;2024-01-10T04:52:38;11.50;;;5.37;;
25127;SDS011;13107;51.304;6.866;2024-01-10T04:56:40;14.07;;;4.93;;
25127;SDS011;13107;51.304;6.866;2024-01-10T05:00:41;10.82;;;5.05;;
25127;SDS011;13107;51.304;6.866;2024-01-10T05:04:43;9.52;;;5.28;;
25127;SDS011;13107;51.304;6.866;2024-01-10T05:08:45;10.82;;;5.30;;
25127;SDS011;13107;51.304;6.866;2024-01-10T05:12:47;12.32;;;5.12;;
25127;SDS011;13107;51.304;6.866;2024-01-10T05:16:49;11.60;;;5.70;;
25127;SDS011;13107;51.304;6.866;2024-01-10T05:20:51;14.25;;;5.65;;
25127;SDS011;13107;51.304;6.866;2024-01-10T05:24:52;9.85;;;5.25;;
25127;SDS011;13107;51.304;6.866;2024-01-10T05:28:54;15.48;;;5.43;;
25127;SDS011;13107;51.304;6.866;2024-01-10T05:32:56;13.30;;;5.62;;
25127;SDS011;13107;51.304;6.866;2024-01-10T05:36:58;10.93;;;4.60;;
25127;SDS011;13107;51.304;6.866;2024-01-10T05:40:59;12.70;;;5.78;;
25127;SDS011;13107;51.304;6.866;2024-01-10T05:45:03;12.90;;;5.28;;
25127;SDS011;13107;51.304;6.866;2024-01-10T05:49:05;10.35;;;5.32;;
25127;SDS011;13107;51.304;6.866;2024-01-10T05:53:08;13.55;;;5.45;;
25127;SDS011;13107;51.304;6.866;2024-01-10T05:57:11;10.98;;;5.35;;
25127;SDS011;13107;51.304;6.866;2024-01-10T06:01:13;16.67;;;5.97;;
25127;SDS011;13107;51.304;6.866;2024-01-10T06:05:15;14.82;;;6.10;;
25127;SDS011;13107;51.304;6.866;2024-01-10T06:09:17;10.50;;;5.87;;
25127;SDS011;13107;51.304;6.866;2024-01-10T06:13:23;11.57;;;5.45;;
25127;SDS011;13107;51.304;6.866;2024-01-10T06:17:24;13.52;;;5.78;;
25127;SDS011;13107;51.304;6.866;2024-01-10T06:21:26;15.10;;;5.85;;
25127;SDS011;13107;51.304;6.866;2024-01-10T06:25:28;10.95;;;5.87;;
25127;SDS011;13107;51.304;6.866;2024-01-10T06:29:30;12.25;;;6.15;;
25127;SDS011;13107;51.304;6.866;2024-01-10T06:33:32;17.90;;;6.10;;
25127;SDS011;13107;51.304;6.866;2024-01-10T06:37:34;12.27;;;5.25;;
25127;SDS011;13107;51.304;6.866;2024-01-10T06:41:37;18.05;;;6.70;;
25127;SDS011;13107;51.304;6.866;2024-01-10T06:45:40;11.80;;;5.57;;
25127;SDS011;13107;51.304;6.866;2024-01-10T06:49:43;20.55;;;8.57;;
25127;SDS011;13107;51.304;6.866;2024-01-10T06:53:45;16.00;;;7.37;;
25127;SDS011;13107;51.304;6.866;2024-01-10T06:57:46;13.68;;;6.53;;
25127;SDS011;13107;51.304;6.866;2024-01-10T07:01:57;13.43;;;6.55;;
25127;SDS011;13107;51.304;6.866;2024-01-10T07:05:58;13.93;;;6.62;;
25127;SDS011;13107;51.304;6.866;2024-01-10T07:10:01;12.00;;;6.62;;
25127;SDS011;13107;51.304;6.866;2024-01-10T07:14:06;12.73;;;5.87;;
25127;SDS011;13107;51.304;6.866;2024-01-10T07:18:07;17.12;;;7.00;;
25127;SDS011;13107;51.304;6.866;2024-01-10T07:22:09;18.17;;;6.97;;
25127;SDS011;13107;51.304;6.866;2024-01-10T07:26:14;17.12;;;7.15;;
25127;SDS011;13107;51.304;6.866;2024-01-10T07:30:18;17.62;;;7.00;;
25127;SDS011;13107;51.304;6.866;2024-01-10T07:34:19;13.62;;;6.40;;
25127;SDS011;13107;51.304;6.866;2024-01-10T07:38:22;16.83;;;7.40;;
25127;SDS011;13107;51.304;6.866;2024-01-10T07:42:24;21.23;;;7.70;;
25127;SDS011;13107;51.304;6.866;2024-01-10T07:46:26;16.58;;;7.03;;
25127;SDS011;13107;51.304;6.866;2024-01-10T07:50:31;14.45;;;6.85;;
25127;SDS011;13107;51.304;6.866;2024-01-10T07:54:32;18.70;;;6.90;;
25127;SDS011;13107;51.304;6.866;2024-01-10T07:58:34;18.65;;;7.45;;
25127;SDS011;13107;51.304;6.866;2024-01-10T08:02:36;14.73;;;7.22;;
25127;SDS011;13107;51.304;6.866;2024-01-10T08:06:38;23.52;;;7.35;;
25127;SDS011;13107;51.304;6.866;2024-01-10T08:10:40;15.32;;;6.85;;
25127;SDS011;13107;51.304;6.866;2024-01-10T08:14:42;15.30;;;7.03;;
25127;SDS011;13107;51.304;6.866;2024-01-10T08:18:47;16.80;;;7.03;;
25127;SDS011;13107;51.304;6.866;2024-01-10T08:22:49;17.70;;;7.20;;
25127;SDS011;13107;51.304;6.866;2024-01-10T08:26:51;18.48;;;7.10;;
25127;SDS011;13107;51.304;6.866;2024-01-10T08:30:53;17.60;;;7.78;;
25127;SDS011;13107;51.304;6.866;2024-01-10T08:35:05;18.00;;;7.68;;
25127;SDS011;13107;51.304;6.866;2024-01-10T08:39:10;15.23;;;6.95;;
25127;SDS011;13107;51.304;6.866;2024-01-10T08:43:12;17.90;;;7.68;;
25127;SDS011;13107;51.304;6.866;2024-01-10T08:47:14;17.10;;;8.00;;
25127;SDS011;13107;51.304;6.866;2024-01-10T08:51:16;21.15;;;7.60;;
25127;SDS011;13107;51.304;6.866;2024-01-10T08:55:18;19.42;;;8.23;;
25127;SDS011;13107;51.304;6.866;2024-01-10T08:59:19;18.37;;;7.25;;
25127;SDS011;13107;51.304;6.866;2024-01-10T09:03:21;17.58;;;8.25;;
25127;SDS011;13107;51.304;6.866;2024-01-10T09:07:23;21.10;;;8.90;;
25127;SDS011;13107;51.304;6.866;2024-01-10T09:11:25;16.83;;;8.90;;
25127;SDS011;13107;51.304;6.866;2024-01-10T09:15:26;19.05;;;8.40;;
25127;SDS011;13107;51.304;6.866;2024-01-10T09:19:29;17.00;;;7.95;;
25127;SDS011;13107;51.304;6.866;2024-01-10T09:23:31;21.77;;;8.32;;
25127;SDS011;13107;51.304;6.866;2024-01-10T09:27:33;19.37;;;8.43;;
25127;SDS011;13107;51.304;6.866;2024-01-10T09:31:36;19.65;;;7.82;;
25127;SDS011;13107;51.304;6.866;2024-01-10T09:35:38;14.23;;;7.78;;
25127;SDS011;13107;51.304;6.866;2024-01-10T09:39:40;17.55;;;7.35;;
25127;SDS011;13107;51.304;6.866;2024-01-10T09:43:41;17.83;;;8.15;;
25127;SDS011;13107;51.304;6.866;2024-01-10T09:47:43;19.65;;;8.40;;
25127;SDS011;13107;51.304;6.866;2024-01-10T09:51:49;15.88;;;7.53;;
25127;SDS011;13107;51.304;6.866;2024-01-10T09:55:52;17.87;;;8.30;;
25127;SDS011;13107;51.304;6.866;2024-01-10T09:59:58;21.00;;;8.23;;
25127;SDS011;13107;51.304;6.866;2024-01-10T10:03:59;16.60;;;8.13;;
25127;SDS011;13107;51.304;6.866;2024-01-10T10:08:04;18.45;;;7.87;;
25127;SDS011;13107;51.304;6.866;2024-01-10T10:12:08;17.52;;;8.50;;
25127;SDS011;13107;51.304;6.866;2024-01-10T10:16:10;19.90;;;8.55;;
25127;SDS011;13107;51.304;6.866;2024-01-10T10:20:23;19.73;;;9.40;;
25127;SDS011;13107;51.304;6.866;2024-01-10T10:24:26;19.20;;;9.10;;
25127;SDS011;13107;51.304;6.866;2024-01-10T10:28:29;19.30;;;8.40;;
25127;SDS011;13107;51.304;6.866;2024-01-10T10:32:36;17.85;;;8.70;;
25127;SDS011;13107;51.304;6.866;2024-01-10T10:36:38;18.98;;;9.23;;
25127;SDS011;13107;51.304;6.866;2024-01-10T10:40:40;16.87;;;8.27;;
25127;SDS011;13107;51.304;6.866;2024-01-10T10:44:42;18.92;;;8.68;;
25127;SDS011;13107;51.304;6.866;2024-01-10T10:48:45;16.58;;;8.40;;
25127;SDS011;13107;51.304;6.866;2024-01-10T10:52:50;16.85;;;8.52;;
25127;SDS011;13107;51.304;6.866;2024-01-10T10:56:52;16.80;;;9.15;;
25127;SDS011;13107;51.304;6.866;2024-01-10T11:00:56;18.98;;;9.55;;
25127;SDS011;13107;51.304;6.866;2024-01-10T11:04:59;28.05;;;10.07;;
25127;SDS011;13107;51.304;6.866;2024-01-10T11:09:04;18.17;;;9.32;;
25127;SDS011;13107;51.304;6.866;2024-01-10T11:25:50;19.23;;;8.32;;
25127;SDS011;13107;51.304;6.866;2024-01-10T11:29:52;18.23;;;9.20;;
25127;SDS011;13107;51.304;6.866;2024-01-10T11:33:55;25.42;;;9.98;;
25127;SDS011;13107;51.304;6.866;2024-01-10T11:37:59;21.08;;;9.52;;
25127;SDS011;13107;51.304;6.866;2024-01-10T11:42:02;24.25;;;9.18;;
25127;SDS011;13107;51.304;6.866;2024-01-10T11:46:04;17.20;;;8.57;;
25127;SDS011;13107;51.304;6.866;2024-01-10T11:50:07;21.23;;;9.57;;
25127;SDS011;13107;51.304;6.866;2024-01-10T11:54:10;16.55;;;8.30;;
25127;SDS011;13107;51.304;6.866;2024-01-10T11:58:12;18.45;;;8.85;;
25127;SDS011;13107;51.304;6.866;2024-01-10T12:02:14;17.23;;;8.40;;
25127;SDS011;13107;51.304;6.866;2024-01-10T12:06:17;19.60;;;8.38;;
25127;SDS011;13107;51.304;6.866;2024-01-10T12:10:21;18.55;;;8.77;;
25127;SDS011;13107;51.304;6.866;2024-01-10T12:14:23;15.48;;;8.70;;
25127;SDS011;13107;51.304;6.866;2024-01-10T12:18:25;21.50;;;9.05;;
25127;SDS011;13107;51.304;6.866;2024-01-10T12:22:27;17.62;;;7.82;;
25127;SDS011;13107;51.304;6.866;2024-01-10T12:26:29;15.60;;;8.05;;
25127;SDS011;13107;51.304;6.866;2024-01-10T12:30:31;17.77;;;8.50;;
25127;SDS011;13107;51.304;6.866;2024-01-10T12:34:32;22.13;;;9.93;;
25127;SDS011;13107;51.304;6.866;2024-01-10T12:38:34;20.95;;;9.50;;
25127;SDS011;13107;51.304;6.866;2024-01-10T12:42:37;17.55;;;9.07;;
25127;SDS011;13107;51.304;6.866;2024-01-10T12:46:48;21.33;;;9.38;;
25127;SDS011;13107;51.304;6.866;2024-01-10T12:50:53;16.23;;;8.18;;
25127;SDS011;13107;51.304;6.866;2024-01-10T12:54:54;21.02;;;9.57;;
25127;SDS011;13107;51.304;6.866;2024-01-10T12:58:56;17.05;;;9.07;;
25127;SDS011;13107;51.304;6.866;2024-01-10T13:02:59;26.80;;;13.07;;
25127;SDS011;13107;51.304;6.866;2024-01-10T13:07:01;26.33;;;11.85;;
25127;SDS011;13107;51.304;6.866;2024-01-10T13:11:03;22.60;;;9.77;;
25127;SDS011;13107;51.304;6.866;2024-01-10T13:15:09;21.95;;;10.48;;
25127;SDS011;13107;51.304;6.866;2024-01-10T13:19:11;20.55;;;9.52;;
25127;SDS011;13107;51.304;6.866;2024-01-10T13:23:13;18.08;;;10.43;;
25127;SDS011;13107;51.304;6.866;2024-01-10T13:27:16;20.50;;;10.35;;
25127;SDS011;13107;51.304;6.866;2024-01-10T13:31:22;21.70;;;9.68;;
25127;SDS011;13107;51.304;6.866;2024-01-10T13:35:24;23.55;;;11.20;;
25127;SDS011;13107;51.304;6.866;2024-01-10T13:39:26;24.15;;;11.25;;
25127;SDS011;13107;51.304;6.866;2024-01-10T13:43:28;19.30;;;9.43;;
25127;SDS011;13107;51.304;6.866;2024-01-10T13:47:29;25.33;;;10.35;;
25127;SDS011;13107;51.304;6.866;2024-01-10T13:51:32;18.67;;;9.90;;
25127;SDS011;13107;51.304;6.866;2024-01-10T13:55:33;23.40;;;9.52;;
25127;SDS011;13107;51.304;6.866;2024-01-10T13:59:37;22.27;;;10.02;;
25127;SDS011;13107;51.304;6.866;2024-01-10T14:03:38;21.70;;;10.52;;
25127;SDS011;13107;51.304;6.866;2024-01-10T14:07:40;24.55;;;10.32;;
25127;SDS011;13107;51.304;6.866;2024-01-10T14:11:45;21.25;;;11.00;;
25127;SDS011;13107;51.304;6.866;2024-01-10T14:15:49;27.30;;;12.37;;
25127;SDS011;13107;51.304;6.866;2024-01-10T14:19:51;54.40;;;26.62;;
25127;SDS011;13107;51.304;6.866;2024-01-10T14:23:53;38.22;;;16.77;;
25127;SDS011;13107;51.304;6.866;2024-01-10T14:27:55;25.62;;;12.65;;
25127;SDS011;13107;51.304;6.866;2024-01-10T14:31:59;23.55;;;12.43;;
25127;SDS011;13107;51.304;6.866;2024-01-10T14:36:17;22.37;;;11.38;;
25127;SDS011;13107;51.304;6.866;2024-01-10T14:40:19;24.90;;;11.90;;
25127;SDS011;13107;51.304;6.866;2024-01-10T14:44:23;28.15;;;12.65;;
25127;SDS011;13107;51.304;6.866;2024-01-10T14:48:25;26.40;;;12.63;;
25127;SDS011;13107;51.304;6.866;2024-01-10T14:52:28;25.10;;;12.80;;
25127;SDS011;13107;51.304;6.866;2024-01-10T14:56:30;29.63;;;11.73;;
25127;SDS011;13107;51.304;6.866;2024-01-10T15:00:32;29.63;;;12.65;;
25127;SDS011;13107;51.304;6.866;2024-01-10T15:04:37;24.80;;;12.25;;
25127;SDS011;13107;51.304;6.866;2024-01-10T15:08:40;24.83;;;12.23;;
25127;SDS011;13107;51.304;6.866;2024-01-10T15:12:42;26.62;;;13.05;;
25127;SDS011;13107;51.304;6.866;2024-01-10T15:16:44;29.23;;;13.05;;
25127;SDS011;13107;51.304;6.866;2024-01-10T15:20:47;26.45;;;12.02;;
25127;SDS011;13107;51.304;6.866;2024-01-10T15:24:49;25.90;;;12.20;;
25127;SDS011;13107;51.304;6.866;2024-01-10T15:28:51;31.40;;;14.13;;
25127;SDS011;13107;51.304;6.866;2024-01-10T15:32:55;27.92;;;12.60;;
25127;SDS011;13107;51.304;6.866;2024-01-10T15:36:59;25.15;;;12.73;;
25127;SDS011;13107;51.304;6.866;2024-01-10T15:41:00;28.85;;;11.52;;
25127;SDS011;13107;51.304;6.866;2024-01-10T15:45:04;30.17;;;12.32;;
25127;SDS011;13107;51.304;6.866;2024-01-10T15:49:06;30.37;;;12.73;;
25127;SDS011;13107;51.304;6.866;2024-01-10T15:53:08;27.95;;;12.43;;
25127;SDS011;13107;51.304;6.866;2024-01-10T15:57:10;24.77;;;12.57;;
25127;SDS011;13107;51.304;6.866;2024-01-10T16:01:12;25.05;;;12.68;;
25127;SDS011;13107;51.304;6.866;2024-01-10T16:05:14;32.42;;;13.95;;
25127;SDS011;13107;51.304;6.866;2024-01-10T16:09:17;26.35;;;13.10;;
25127;SDS011;13107;51.304;6.866;2024-01-10T16:13:19;24.50;;;12.73;;
25127;SDS011;13107;51.304;6.866;2024-01-10T16:17:21;26.65;;;13.15;;
25127;SDS011;13107;51.304;6.866;2024-01-10T16:21:23;25.80;;;12.52;;
25127;SDS011;13107;51.304;6.866;2024-01-10T16:25:24;25.45;;;13.10;;
25127;SDS011;13107;51.304;6.866;2024-01-10T16:29:26;24.63;;;12.52;;
25127;SDS011;13107;51.304;6.866;2024-01-10T16:33:28;29.95;;;13.13;;
25127;SDS011;13107;51.304;6.866;2024-01-10T16:37:30;27.45;;;12.25;;
25127;SDS011;13107;51.304;6.866;2024-01-10T16:41:31;25.58;;;12.93;;
25127;SDS011;13107;51.304;6.866;2024-01-10T16:45:33;24.12;;;12.80;;
25127;SDS011;13107;51.304;6.866;2024-01-10T16:49:36;24.92;;;12.65;;
25127;SDS011;13107;51.304;6.866;2024-01-10T16:53:38;31.05;;;14.13;;
25127;SDS011;13107;51.304;6.866;2024-01-10T16:57:39;26.27;;;13.43;;
25127;SDS011;13107;51.304;6.866;2024-01-10T17:01:41;28.83;;;13.07;;
25127;SDS011;13107;51.304;6.866;2024-01-10T17:05:44;26.15;;;13.48;;
25127;SDS011;13107;51.304;6.866;2024-01-10T17:09:46;31.00;;;13.73;;
25127;SDS011;13107;51.304;6.866;2024-01-10T17:13:50;31.27;;;12.70;;
25127;SDS011;13107;51.304;6.866;2024-01-10T17:17:51;26.60;;;12.18;;
25127;SDS011;13107;51.304;6.866;2024-01-10T17:21:54;28.77;;;13.50;;
25127;SDS011;13107;51.304;6.866;2024-01-10T17:25:56;34.55;;;13.23;;
25127;SDS011;13107;51.304;6.866;2024-01-10T17:29:58;26.75;;;12.57;;
25127;SDS011;13107;51.304;6.866;2024-01-10T17:34:00;27.98;;;12.13;;
25127;SDS011;13107;51.304;6.866;2024-01-10T17:38:02;27.95;;;11.77;;
25127;SDS011;13107;51.304;6.866;2024-01-10T17:42:06;27.70;;;13.00;;
25127;SDS011;13107;51.304;6.866;2024-01-10T17:46:07;27.67;;;12.37;;
25127;SDS011;13107;51.304;6.866;2024-01-10T17:50:09;26.12;;;13.05;;
25127;SDS011;13107;51.304;6.866;2024-01-10T17:54:12;29.42;;;13.05;;
25127;SDS011;13107;51.304;6.866;2024-01-10T17:58:13;27.23;;;12.80;;
25127;SDS011;13107;51.304;6.866;2024-01-10T18:02:15;29.17;;;12.82;;
25127;SDS011;13107;51.304;6.866;2024-01-10T18:06:17;26.52;;;12.80;;
25127;SDS011;13107;51.304;6.866;2024-01-10T18:10:19;33.22;;;14.52;;
25127;SDS011;13107;51.304;6.866;2024-01-10T18:14:21;31.42;;;13.88;;
25127;SDS011;13107;51.304;6.866;2024-01-10T18:18:22;24.60;;;12.73;;
25127;SDS011;13107;51.304;6.866;2024-01-10T18:22:24;33.30;;;14.77;;
25127;SDS011;13107;51.304;6.866;2024-01-10T18:26:26;28.95;;;14.30;;
25127;SDS011;13107;51.304;6.866;2024-01-10T18:30:29;28.50;;;14.10;;
25127;SDS011;13107;51.304;6.866;2024-01-10T18:34:30;26.83;;;13.13;;
25127;SDS011;13107;51.304;6.866;2024-01-10T18:38:32;32.00;;;15.10;;
25127;SDS011;13107;51.304;6.866;2024-01-10T18:42:34;53.13;;;28.12;;
25127;SDS011;13107;51.304;6.866;2024-01-10T18:46:36;64.57;;;33.90;;
25127;SDS011;13107;51.304;6.866;2024-01-10T18:50:38;39.85;;;20.80;;
25127;SDS011;13107;51.304;6.866;2024-01-10T18:54:41;54.42;;;31.30;;
25127;SDS011;13107;51.304;6.866;2024-01-10T18:58:43;50.88;;;25.75;;
25127;SDS011;13107;51.304;6.866;2024-01-10T19:02:45;60.22;;;27.80;;
25127;SDS011;13107;51.304;6.866;2024-01-10T19:06:46;36.33;;;20.17;;
25127;SDS011;13107;51.304;6.866;2024-01-10T19:10:48;28.75;;;14.35;;
25127;SDS011;13107;51.304;6.866;2024-01-10T19:14:50;26.75;;;15.07;;
25127;SDS011;13107;51.304;6.866;2024-01-10T19:18:52;31.30;;;16.17;;
25127;SDS011;13107;51.304;6.866;2024-01-10T19:22:54;32.88;;;17.37;;
25127;SDS011;13107;51.304;6.866;2024-01-10T19:26:56;31.52;;;16.58;;
25127;SDS011;13107;51.304;6.866;2024-01-10T19:30:58;32.17;;;16.30;;
25127;SDS011;13107;51.304;6.866;2024-01-10T19:35:00;31.62;;;16.95;;
25127;SDS011;13107;51.304;6.866;2024-01-10T19:39:03;34.35;;;15.68;;
25127;SDS011;13107;51.304;6.866;2024-01-10T19:43:06;33.80;;;15.63;;
25127;SDS011;13107;51.304;6.866;2024-01-10T19:47:09;31.02;;;15.52;;
25127;SDS011;13107;51.304;6.866;2024-01-10T19:51:11;30.73;;;15.15;;
25127;SDS011;13107;51.304;6.866;2024-01-10T19:55:13;29.85;;;13.75;;
25127;SDS011;13107;51.304;6.866;2024-01-10T19:59:15;29.15;;;13.98;;
25127;SDS011;13107;51.304;6.866;2024-01-10T20:03:17;26.90;;;13.80;;
25127;SDS011;13107;51.304;6.866;2024-01-10T20:07:19;24.73;;;12.93;;
25127;SDS011;13107;51.304;6.866;2024-01-10T20:11:21;31.25;;;13.73;;
25127;SDS011;13107;51.304;6.866;2024-01-10T20:15:23;26.60;;;12.45;;
25127;SDS011;13107;51.304;6.866;2024-01-10T20:19:24;28.27;;;12.68;;
25127;SDS011;13107;51.304;6.866;2024-01-10T20:23:26;30.12;;;13.25;;
25127;SDS011;13107;51.304;6.866;2024-01-10T20:27:28;29.20;;;12.70;;
25127;SDS011;13107;51.304;6.866;2024-01-10T20:31:30;27.05;;;12.55;;
25127;SDS011;13107;51.304;6.866;2024-01-10T20:35:33;29.67;;;13.15;;
25127;SDS011;13107;51.304;6.866;2024-01-10T20:39:35;30.33;;;13.50;;
25127;SDS011;13107;51.304;6.866;2024-01-10T20:43:36;23.58;;;12.63;;
25127;SDS011;13107;51.304;6.866;2024-01-10T20:47:39;25.20;;;12.23;;
25127;SDS011;13107;51.304;6.866;2024-01-10T20:51:44;32.33;;;13.82;;
25127;SDS011;13107;51.304;6.866;2024-01-10T20:55:46;31.52;;;15.60;;
25127;SDS011;13107;51.304;6.866;2024-01-10T20:59:48;26.87;;;13.62;;
25127;SDS011;13107;51.304;6.866;2024-01-10T21:03:55;30.92;;;14.10;;
25127;SDS011;13107;51.304;6.866;2024-01-10T21:07:57;32.67;;;13.18;;
25127;SDS011;13107;51.304;6.866;2024-01-10T21:11:59;28.85;;;12.43;;
25127;SDS011;13107;51.304;6.866;2024-01-10T21:16:01;25.00;;;12.05;;
25127;SDS011;13107;51.304;6.866;2024-01-10T21:20:02;28.62;;;12.55;;
25127;SDS011;13107;51.304;6.866;2024-01-10T21:24:05;28.60;;;13.75;;
25127;SDS011;13107;51.304;6.866;2024-01-10T21:28:07;28.23;;;13.62;;
25127;SDS011;13107;51.304;6.866;2024-01-10T21:32:09;30.62;;;13.65;;
25127;SDS011;13107;51.304;6.866;2024-01-10T21:36:11;38.83;;;16.65;;
25127;SDS011;13107;51.304;6.866;2024-01-10T21:40:13;41.40;;;19.05;;
25127;SDS011;13107;51.304;6.866;2024-01-10T21:44:18;33.17;;;15.48;;
25127;SDS011;13107;51.304;6.866;2024-01-10T21:48:21;32.13;;;14.75;;
25127;SDS011;13107;51.304;6.866;2024-01-10T21:52:23;31.23;;;14.90;;
25127;SDS011;13107;51.304;6.866;2024-01-10T21:56:25;35.92;;;16.02;;
25127;SDS011;13107;51.304;6.866;2024-01-10T22:00:27;30.08;;;14.13;;
25127;SDS011;13107;51.304;6.866;2024-01-10T22:04:30;31.20;;;13.70;;
25127;SDS011;13107;51.304;6.866;2024-01-10T22:08:34;26.83;;;12.80;;
25127;SDS011;13107;51.304;6.866;2024-01-10T22:12:36;30.73;;;13.93;;
25127;SDS011;13107;51.304;6.866;2024-01-10T22:16:38;28.73;;;12.98;;
25127;SDS011;13107;51.304;6.866;2024-01-10T22:20:39;34.30;;;14.50;;
25127;SDS011;13107;51.304;6.866;2024-01-10T22:24:42;29.55;;;13.35;;
25127;SDS011;13107;51.304;6.866;2024-01-10T22:28:44;27.40;;;14.38;;
25127;SDS011;13107;51.304;6.866;2024-01-10T22:32:45;29.75;;;13.50;;
25127;SDS011;13107;51.304;6.866;2024-01-10T22:36:48;31.55;;;13.77;;
25127;SDS011;13107;51.304;6.866;2024-01-10T22:40:50;27.05;;;14.18;;
25127;SDS011;13107;51.304;6.866;2024-01-10T22:44:52;26.98;;;13.48;;
25127;SDS011;13107;51.304;6.866;2024-01-10T22:48:53;32.67;;;14.25;;
25127;SDS011;13107;51.304;6.866;2024-01-10T22:52:55;28.67;;;13.27;;
25127;SDS011;13107;51.304;6.866;2024-01-10T22:56:58;26.45;;;13.20;;
25127;SDS011;13107;51.304;6.866;2024-01-10T23:01:00;33.13;;;14.75;;
25127;SDS011;13107;51.304;6.866;2024-01-10T23:05:01;32.95;;;13.82;;
25127;SDS011;13107;51.304;6.866;2024-01-10T23:09:03;29.45;;;13.27;;
25127;SDS011;13107;51.304;6.866;2024-01-10T23:13:05;32.45;;;14.43;;
25127;SDS011;13107;51.304;6.866;2024-01-10T23:17:07;29.00;;;14.13;;
25127;SDS011;13107;51.304;6.866;2024-01-10T23:21:10;33.13;;;14.40;;
25127;SDS011;13107;51.304;6.866;2024-01-10T23:25:12;31.52;;;14.65;;
25127;SDS011;13107;51.304;6.866;2024-01-10T23:29:13;32.85;;;16.00;;
25127;SDS011;13107;51.304;6.866;2024-01-10T23:33:15;31.60;;;14.07;;
25127;SDS011;13107;51.304;6.866;2024-01-10T23:37:17;29.50;;;14.10;;
25127;SDS011;13107;51.304;6.866;2024-01-10T23:41:19;31.40;;;14.93;;
25127;SDS011;13107;51.304;6.866;2024-01-10T23:45:20;29.30;;;15.10;;
25127;SDS011;13107;51.304;6.866;2024-01-10T23:49:22;36.13;;;15.55;;
25127;SDS011;13107;51.304;6.866;2024-01-10T23:53:24;35.97;;;16.17;;
25127;SDS011;13107;51.304;6.866;2024-01-10T23:57:27;34.20;;;16.20;;
